Terminal Aerodrome Forecast
Issued by NWS Kansas City/Pleasant Hill, MO

Home | Current Version | Previous Version | Text Only | Print | Product List | Glossary On
Versions: 1 2 3 4 5 6 7 8 9 10 11 12 13 14
147
FTUS43 KEAX 160520
TAFMCI
TAF
KMCI 160520Z 1606/1706 33012KT P6SM SKC
     FM161500 31010KT P6SM OVC025
     FM162200 31005KT P6SM SCT025=

USA.gov is the U.S. government's official web portal to all federal, state and local government web resources and services.